createdAt,value
2023-01-22T00:02:27.315Z,19.08
2023-01-22T00:04:54.781Z,19.60
2023-01-22T00:07:22.237Z,20.27
2023-01-22T00:09:49.718Z,23.42
2023-01-22T00:12:17.761Z,21.17
2023-01-22T00:14:45.192Z,22.73
2023-01-22T00:17:14.185Z,21.75
2023-01-22T00:19:42.474Z,22.13
2023-01-22T00:22:10.853Z,22.67
2023-01-22T00:24:39.802Z,22.98
2023-01-22T00:27:07.582Z,23.05
2023-01-22T00:29:35.379Z,22.25
2023-01-22T00:34:31.863Z,22.17
2023-01-22T00:36:59.428Z,22.52
2023-01-22T00:39:26.999Z,23.90
2023-01-22T00:41:54.487Z,21.70
2023-01-22T00:44:22.040Z,22.13
2023-01-22T00:46:49.510Z,23.05
2023-01-22T00:49:17.060Z,22.90
2023-01-22T00:51:47.302Z,21.75
2023-01-22T00:54:14.775Z,21.27
2023-01-22T00:56:42.349Z,20.38
2023-01-22T00:59:10.645Z,20.92
2023-01-22T01:01:38.401Z,21.33
2023-01-22T01:04:06.184Z,19.63
2023-01-22T01:09:03.046Z,20.00
2023-01-22T01:11:30.746Z,21.30
2023-01-22T01:13:58.223Z,22.02
2023-01-22T01:16:29.507Z,20.58
2023-01-22T01:18:58.580Z,19.15
2023-01-22T01:21:27.206Z,21.67
2023-01-22T01:28:52.381Z,17.17
2023-01-22T01:31:21.084Z,18.00
2023-01-22T01:33:49.536Z,19.25
2023-01-22T01:36:21.240Z,16.67
2023-01-22T01:38:55.619Z,19.13
2023-01-22T01:41:24.071Z,17.17
2023-01-22T01:44:06.364Z,18.17
2023-01-22T01:46:37.447Z,18.90
2023-01-22T01:49:07.848Z,17.58
2023-01-22T01:51:36.364Z,20.00
2023-01-22T01:54:04.436Z,19.40
2023-01-22T01:56:33.971Z,18.42
2023-01-22T01:59:03.507Z,18.25
2023-01-22T02:01:31.977Z,18.40
2023-01-22T02:04:01.260Z,18.65
2023-01-22T02:06:28.764Z,17.75
2023-01-22T02:08:57.683Z,17.88
2023-01-22T02:11:25.755Z,19.90
2023-01-22T02:13:55.048Z,18.27
2023-01-22T02:16:22.622Z,18.02
2023-01-22T02:18:50.209Z,16.67
2023-01-22T02:21:41.853Z,17.83
2023-01-22T02:24:11.770Z,18.15
2023-01-22T02:26:40.270Z,17.83
2023-01-22T02:29:10.182Z,17.13
2023-01-22T02:31:38.834Z,18.10
2023-01-22T02:34:06.857Z,16.48
2023-01-22T02:36:37.216Z,15.93
2023-01-22T02:39:04.945Z,17.40
2023-01-22T02:41:33.976Z,16.88
2023-01-22T02:44:01.392Z,16.38
2023-01-22T02:46:30.304Z,15.57
2023-01-22T02:48:57.765Z,16.13
2023-01-22T02:51:26.522Z,15.68
2023-01-22T02:53:54.204Z,14.45
2023-01-22T02:56:22.107Z,15.82
2023-01-22T02:58:51.336Z,15.23
2023-01-22T03:01:21.373Z,16.23
2023-01-22T03:03:51.663Z,15.43
2023-01-22T03:06:21.355Z,16.10
2023-01-22T03:08:49.059Z,15.35
2023-01-22T03:11:16.794Z,14.55
2023-01-22T03:14:02.144Z,17.35
2023-01-22T03:16:49.646Z,17.13
2023-01-22T03:22:01.929Z,16.92
2023-01-22T03:24:29.671Z,18.60
2023-01-22T03:26:57.161Z,18.40
2023-01-22T03:29:24.781Z,17.13
2023-01-22T03:31:54.096Z,17.70
2023-01-22T03:34:22.672Z,17.33
2023-01-22T03:36:50.913Z,17.35
2023-01-22T03:39:18.465Z,18.05
2023-01-22T03:41:46.207Z,17.88
2023-01-22T03:44:14.244Z,17.65
2023-01-22T03:46:42.841Z,17.08
2023-01-22T03:49:13.922Z,19.63
2023-01-22T03:51:42.274Z,20.35
2023-01-22T03:54:11.148Z,20.33
2023-01-22T03:56:39.002Z,21.08
2023-01-22T03:59:15.345Z,20.42
2023-01-22T04:01:43.641Z,20.75
2023-01-22T04:04:13.503Z,20.83
2023-01-22T04:06:43.104Z,20.40
2023-01-22T04:09:12.012Z,21.20
2023-01-22T04:11:46.368Z,21.70
2023-01-22T04:14:15.671Z,20.98
2023-01-22T04:16:56.774Z,20.67
2023-01-22T04:19:42.009Z,19.90
2023-01-22T04:22:28.091Z,19.27
2023-01-22T04:24:56.960Z,20.75
2023-01-22T04:27:24.438Z,20.00
2023-01-22T04:29:54.290Z,21.83
2023-01-22T04:32:23.774Z,21.85
2023-01-22T04:34:59.898Z,21.45
2023-01-22T04:37:39.768Z,21.15
2023-01-22T04:40:08.457Z,22.30
2023-01-22T04:42:37.438Z,22.67
2023-01-22T04:45:05.589Z,21.52
2023-01-22T04:47:34.042Z,20.90
2023-01-22T04:50:05.097Z,21.55
2023-01-22T04:52:33.977Z,21.60
2023-01-22T04:55:01.455Z,20.38
2023-01-22T04:57:38.252Z,20.42
2023-01-22T05:00:06.755Z,21.02
2023-01-22T05:02:34.313Z,20.58
2023-01-22T05:05:03.136Z,20.45
2023-01-22T05:07:30.611Z,21.38
2023-01-22T05:09:58.161Z,20.55
